createdAt,value
2022-08-04T00:02:47.643Z,27.60
2022-08-04T00:05:55.301Z,27.60
2022-08-04T00:08:48.018Z,27.60
2022-08-04T00:11:35.523Z,27.60
2022-08-04T00:14:24.875Z,27.50
2022-08-04T00:17:12.137Z,27.50
2022-08-04T00:20:03.576Z,27.50
2022-08-04T00:22:53.693Z,27.50
2022-08-04T00:25:44.270Z,27.50
2022-08-04T00:28:31.748Z,27.50
2022-08-04T00:31:20.258Z,27.50
2022-08-04T00:34:30.144Z,27.50
2022-08-04T00:37:18.264Z,27.50
2022-08-04T00:40:17.286Z,27.50
2022-08-04T00:43:14.493Z,27.50
2022-08-04T00:46:48.049Z,27.40
2022-08-04T00:50:09.616Z,27.40
2022-08-04T00:53:09.352Z,27.40
2022-08-04T00:56:20.406Z,27.40
2022-08-04T00:59:21.771Z,27.40
2022-08-04T01:02:19.684Z,27.40
2022-08-04T01:05:08.937Z,27.30
2022-08-04T01:08:21.442Z,27.30
2022-08-04T01:11:28.537Z,27.30
2022-08-04T01:14:44.423Z,27.30
2022-08-04T01:17:51.902Z,27.30
2022-08-04T01:20:54.397Z,27.30
2022-08-04T01:24:26.063Z,27.30
2022-08-04T01:27:28.496Z,27.20
2022-08-04T01:30:20.419Z,27.20
2022-08-04T01:33:12.795Z,27.20
2022-08-04T01:36:07.142Z,27.20
2022-08-04T01:38:56.092Z,27.20
2022-08-04T01:41:43.702Z,27.20
2022-08-04T01:44:49.731Z,27.10
2022-08-04T01:47:44.910Z,27.10
2022-08-04T01:50:36.555Z,27.10
2022-08-04T01:53:25.374Z,27.10
2022-08-04T01:56:13.903Z,27.10
2022-08-04T01:59:04.787Z,27.10
2022-08-04T02:01:52.997Z,27.10
2022-08-04T02:04:44.476Z,27.10
2022-08-04T02:07:49.322Z,27.10
2022-08-04T02:10:56.061Z,27.00
2022-08-04T02:13:55.945Z,27.10
2022-08-04T02:16:52.453Z,27.10
2022-08-04T02:20:01.015Z,27.00
2022-08-04T02:23:01.395Z,27.00
2022-08-04T02:25:59.040Z,27.00
2022-08-04T02:28:50.087Z,27.00
2022-08-04T02:31:46.667Z,27.00
2022-08-04T02:34:47.868Z,26.90
2022-08-04T02:37:36.853Z,26.90
2022-08-04T02:40:26.293Z,26.90
2022-08-04T02:43:16.840Z,26.90
2022-08-04T02:46:24.319Z,26.90
2022-08-04T02:49:12.418Z,26.90
2022-08-04T02:52:02.196Z,26.90
2022-08-04T02:54:54.833Z,26.90
2022-08-04T02:57:43.710Z,26.90
2022-08-04T03:00:31.864Z,26.90
2022-08-04T03:03:31.987Z,26.80
2022-08-04T03:07:25.233Z,26.80
2022-08-04T03:10:58.892Z,26.80
2022-08-04T03:14:29.340Z,26.80
2022-08-04T03:18:17.563Z,26.80
2022-08-04T03:21:28.786Z,26.80
2022-08-04T03:25:12.986Z,26.80
2022-08-04T03:28:40.299Z,26.80
2022-08-04T03:31:52.288Z,26.80
2022-08-04T03:35:14.590Z,26.80
2022-08-04T03:38:43.889Z,26.80
2022-08-04T03:42:16.145Z,26.80
2022-08-04T03:45:41.272Z,26.80
2022-08-04T03:48:59.462Z,26.70
2022-08-04T03:52:21.065Z,26.70
2022-08-04T03:55:42.995Z,26.70
2022-08-04T03:59:18.829Z,26.70
2022-08-04T04:03:28.560Z,26.70
2022-08-04T04:06:54.686Z,26.70
2022-08-04T04:10:39.547Z,26.70
2022-08-04T04:14:04.215Z,26.70
2022-08-04T04:17:11.009Z,26.70
2022-08-04T04:20:51.933Z,26.60
2022-08-04T04:24:04.543Z,26.60
2022-08-04T04:26:59.296Z,26.60
2022-08-04T04:30:17.320Z,26.50
2022-08-04T04:33:33.224Z,26.50
2022-08-04T04:36:31.696Z,26.50
2022-08-04T04:39:34.322Z,26.50
2022-08-04T04:42:40.576Z,26.50
2022-08-04T04:45:36.069Z,26.50
2022-08-04T04:48:35.843Z,26.50
2022-08-04T04:51:39.191Z,26.50
2022-08-04T04:54:35.530Z,26.50
2022-08-04T04:57:53.839Z,26.60
2022-08-04T05:00:56.090Z,26.60
2022-08-04T05:04:08.671Z,26.60
2022-08-04T05:07:33.568Z,26.60
2022-08-04T05:10:40.423Z,26.60
2022-08-04T05:14:35.951Z,26.60
2022-08-04T05:16:48.697Z,26.70
2022-08-04T05:19:52.587Z,26.70
2022-08-04T05:22:44.682Z,26.70
2022-08-04T05:25:37.430Z,26.70
2022-08-04T05:28:30.102Z,26.70
2022-08-04T05:31:24.387Z,26.70
2022-08-04T05:34:17.292Z,26.70
2022-08-04T05:37:10.784Z,26.70
2022-08-04T05:40:00.447Z,26.80
2022-08-04T05:42:49.686Z,26.80
2022-08-04T05:45:39.055Z,26.80
2022-08-04T05:48:27.799Z,26.80
2022-08-04T05:51:17.682Z,26.80
2022-08-04T05:54:07.031Z,26.80
2022-08-04T05:56:56.281Z,26.80
2022-08-04T05:59:46.861Z,26.90
2022-08-04T06:02:36.034Z,26.90
2022-08-04T06:05:24.906Z,26.90
2022-08-04T06:08:14.214Z,27.00
2022-08-04T06:11:06.789Z,27.00
2022-08-04T06:13:59.091Z,27.00
2022-08-04T06:16:51.118Z,27.10
2022-08-04T06:20:00.736Z,27.10
2022-08-04T06:22:56.790Z,27.10
2022-08-04T06:25:50.071Z,27.10
2022-08-04T06:28:38.805Z,27.20
2022-08-04T06:32:30.162Z,27.20
2022-08-04T06:34:52.583Z,27.20
2022-08-04T06:37:42.058Z,27.30
2022-08-04T06:40:34.107Z,27.30
2022-08-04T06:43:24.669Z,27.40
2022-08-04T06:46:15.132Z,27.40
2022-08-04T06:49:03.858Z,27.40
2022-08-04T06:51:52.208Z,27.40
2022-08-04T06:54:39.413Z,27.50
2022-08-04T06:57:29.619Z,27.50
2022-08-04T07:00:19.380Z,27.60
2022-08-04T07:03:07.918Z,27.60
2022-08-04T07:05:55.830Z,27.60
2022-08-04T07:08:43.849Z,27.70
2022-08-04T07:11:39.478Z,27.70
2022-08-04T07:14:36.087Z,27.70
2022-08-04T07:17:25.411Z,27.80
2022-08-04T07:20:16.270Z,27.80
2022-08-04T07:23:26.416Z,27.80
2022-08-04T07:26:15.770Z,27.90
2022-08-04T07:29:03.576Z,27.90
2022-08-04T07:31:51.496Z,27.90
2022-08-04T07:34:40.623Z,27.90
2022-08-04T07:37:36.172Z,27.90
2022-08-04T07:40:27.583Z,27.90
2022-08-04T07:43:17.747Z,28.00
2022-08-04T07:46:05.801Z,28.00
2022-08-04T07:48:53.345Z,28.00
2022-08-04T07:51:42.141Z,28.00
2022-08-04T07:54:30.055Z,28.00
2022-08-04T07:57:41.450Z,28.00
2022-08-04T08:00:29.504Z,28.00
2022-08-04T08:03:17.513Z,28.10
2022-08-04T08:06:18.238Z,28.10
2022-08-04T08:09:22.018Z,28.10
2022-08-04T08:12:36.634Z,28.10
2022-08-04T08:15:20.653Z,28.10
2022-08-04T08:18:08.392Z,28.10
2022-08-04T08:20:55.944Z,28.10
2022-08-04T08:23:43.718Z,28.20
2022-08-04T08:26:32.638Z,28.20
2022-08-04T08:29:21.290Z,28.20
2022-08-04T08:32:13.276Z,28.20
2022-08-04T08:35:00.841Z,28.20
2022-08-04T08:37:56.498Z,28.20
2022-08-04T08:40:53.958Z,28.30
2022-08-04T08:44:07.615Z,28.30
2022-08-04T08:47:17.595Z,28.30
2022-08-04T08:50:22.733Z,28.30
2022-08-04T08:53:49.793Z,28.40
2022-08-04T08:56:53.970Z,28.40
2022-08-04T08:59:58.326Z,28.40
2022-08-04T09:03:29.120Z,28.40
2022-08-04T09:06:49.192Z,28.40
2022-08-04T09:09:54.770Z,28.50
2022-08-04T09:12:48.347Z,28.40
2022-08-04T09:15:45.298Z,28.50
2022-08-04T09:18:46.576Z,28.50
2022-08-04T09:21:39.537Z,28.50
2022-08-04T09:24:37.865Z,28.50
2022-08-04T09:27:32.664Z,28.50
2022-08-04T09:30:23.441Z,28.50
2022-08-04T09:33:45.659Z,28.50
2022-08-04T09:36:40.974Z,28.60
2022-08-04T09:39:36.211Z,28.60
2022-08-04T09:42:38.301Z,28.70
2022-08-04T09:45:44.155Z,28.70
2022-08-04T09:48:41.841Z,28.80
2022-08-04T09:51:56.728Z,28.80
2022-08-04T09:54:53.492Z,28.80
2022-08-04T09:57:55.338Z,28.90
2022-08-04T10:00:49.498Z,28.90
2022-08-04T10:03:44.079Z,29.00
2022-08-04T10:07:06.355Z,29.00
2022-08-04T10:10:11.783Z,29.10
2022-08-04T10:13:20.040Z,29.20
2022-08-04T10:16:29.743Z,29.20
2022-08-04T10:19:27.680Z,29.30
2022-08-04T10:22:29.478Z,29.40
2022-08-04T10:26:06.157Z,29.40
2022-08-04T10:28:55.843Z,29.50
2022-08-04T10:31:48.282Z,29.60
2022-08-04T10:34:44.988Z,29.80
2022-08-04T10:38:00.194Z,29.90
2022-08-04T10:40:49.553Z,30.10
2022-08-04T10:43:50.811Z,30.30
2022-08-04T10:46:46.442Z,30.40
2022-08-04T10:49:44.050Z,30.60
2022-08-04T10:52:37.642Z,30.70
2022-08-04T10:56:07.445Z,30.80
2022-08-04T10:58:52.457Z,30.90
2022-08-04T11:02:01.230Z,30.90
2022-08-04T11:05:01.442Z,31.10
2022-08-04T11:07:55.529Z,31.10
2022-08-04T11:10:49.539Z,31.10
2022-08-04T11:13:47.161Z,31.10
2022-08-04T11:16:43.075Z,31.10
2022-08-04T11:19:44.975Z,31.00
2022-08-04T11:22:43.277Z,31.00
2022-08-04T11:25:40.392Z,30.90
2022-08-04T11:28:40.636Z,30.90
2022-08-04T11:31:33.162Z,30.80
2022-08-04T11:34:22.869Z,30.80
2022-08-04T11:37:17.498Z,30.70
2022-08-04T11:40:15.261Z,30.60
2022-08-04T11:43:08.472Z,30.60
2022-08-04T11:46:00.849Z,30.50
2022-08-04T11:48:56.412Z,30.50
2022-08-04T11:51:46.506Z,30.40
2022-08-04T11:54:36.192Z,30.40
2022-08-04T11:57:35.398Z,30.40
2022-08-04T12:00:26.847Z,30.30
2022-08-04T12:03:28.523Z,30.30
2022-08-04T12:06:26.938Z,30.30
2022-08-04T12:09:24.092Z,30.30
2022-08-04T12:12:22.274Z,30.30
2022-08-04T12:15:21.331Z,30.30
2022-08-04T12:18:18.465Z,30.30
2022-08-04T12:21:13.917Z,30.30
2022-08-04T12:24:07.254Z,30.30
2022-08-04T12:26:58.728Z,30.30
2022-08-04T12:29:54.340Z,30.30
2022-08-04T12:33:03.918Z,30.30
2022-08-04T12:36:11.653Z,30.30
2022-08-04T12:39:06.307Z,30.40
2022-08-04T12:42:04.879Z,30.40
2022-08-04T12:44:55.193Z,30.50
2022-08-04T12:47:44.056Z,30.50
2022-08-04T12:50:34.599Z,30.60
2022-08-04T12:53:51.409Z,30.60
2022-08-04T12:56:40.789Z,30.70
2022-08-04T12:59:28.466Z,30.70
2022-08-04T13:02:24.275Z,30.70
2022-08-04T13:05:17.182Z,30.70
2022-08-04T13:08:08.172Z,30.80
2022-08-04T13:10:59.974Z,30.80
2022-08-04T13:14:00.693Z,30.90
2022-08-04T13:17:02.466Z,30.90
2022-08-04T13:19:53.106Z,31.00
2022-08-04T13:22:46.562Z,31.00
2022-08-04T13:26:44.551Z,31.00
2022-08-04T13:28:50.216Z,31.00
2022-08-04T13:31:39.120Z,30.90
2022-08-04T13:34:26.942Z,30.90
2022-08-04T13:37:21.103Z,30.90
2022-08-04T13:40:13.545Z,30.80
2022-08-04T13:43:03.344Z,30.80
2022-08-04T13:45:52.198Z,30.80
2022-08-04T13:48:41.962Z,30.80
2022-08-04T13:51:58.233Z,30.80
2022-08-04T13:54:43.439Z,30.80
2022-08-04T13:57:34.604Z,30.80
2022-08-04T14:00:29.890Z,30.90
2022-08-04T14:03:28.167Z,30.90
2022-08-04T14:06:22.945Z,30.90
2022-08-04T14:09:17.639Z,31.00
2022-08-04T14:12:46.374Z,31.00
2022-08-04T14:16:02.828Z,31.00
2022-08-04T14:18:43.613Z,30.90
2022-08-04T14:21:38.035Z,31.00
2022-08-04T14:24:27.639Z,31.00
2022-08-04T14:27:15.169Z,31.00
2022-08-04T14:30:02.594Z,31.10
2022-08-04T14:34:01.837Z,31.10
2022-08-04T14:36:14.926Z,31.10
2022-08-04T14:39:03.761Z,31.20
2022-08-04T14:41:53.221Z,31.30
2022-08-04T14:44:56.051Z,31.30
2022-08-04T14:47:52.780Z,31.40
2022-08-04T14:50:45.588Z,31.40
2022-08-04T14:53:33.714Z,31.40
2022-08-04T14:56:45.043Z,31.40
2022-08-04T14:59:28.866Z,31.30
2022-08-04T15:02:23.131Z,31.30
2022-08-04T15:06:02.472Z,31.30
2022-08-04T15:08:31.055Z,31.30
2022-08-04T15:11:23.355Z,31.20
2022-08-04T15:14:35.902Z,31.10
2022-08-04T15:17:29.463Z,31.10
2022-08-04T15:20:18.658Z,31.00
2022-08-04T15:23:10.831Z,30.90
2022-08-04T15:26:04.581Z,30.90
2022-08-04T15:28:57.795Z,30.90
2022-08-04T15:32:06.827Z,30.80
2022-08-04T15:34:55.003Z,30.80
2022-08-04T15:37:54.858Z,30.80
2022-08-04T15:40:50.361Z,30.70
2022-08-04T15:43:55.346Z,30.70
2022-08-04T15:47:14.899Z,30.70
2022-08-04T15:50:10.713Z,30.60
2022-08-04T15:53:10.384Z,30.60
2022-08-04T15:56:00.317Z,30.60
2022-08-04T15:58:54.964Z,30.50
2022-08-04T16:01:42.203Z,30.50
2022-08-04T16:04:49.247Z,30.50
2022-08-04T16:07:54.583Z,30.50
2022-08-04T16:10:45.240Z,30.40
2022-08-04T16:13:32.799Z,30.40
2022-08-04T16:16:29.241Z,30.40
2022-08-04T16:19:35.477Z,30.40
2022-08-04T16:22:41.384Z,30.40
2022-08-04T16:25:46.585Z,30.40
2022-08-04T16:28:42.038Z,30.40
2022-08-04T16:31:34.339Z,30.50
2022-08-04T16:34:47.803Z,30.50
2022-08-04T16:37:35.677Z,30.50
2022-08-04T16:40:36.368Z,30.50
2022-08-04T16:43:30.432Z,30.50
2022-08-04T16:47:08.447Z,30.50
2022-08-04T16:50:03.337Z,30.50
2022-08-04T16:52:53.136Z,30.50
2022-08-04T16:55:40.915Z,30.50
2022-08-04T16:58:32.605Z,30.50
2022-08-04T17:01:32.192Z,30.50
2022-08-04T17:04:30.293Z,30.50
2022-08-04T17:07:17.367Z,30.50
2022-08-04T17:10:04.951Z,30.60
2022-08-04T17:13:03.740Z,30.50
2022-08-04T17:16:01.981Z,30.50
2022-08-04T17:18:51.693Z,30.50
2022-08-04T17:21:40.583Z,30.50
2022-08-04T17:24:28.065Z,30.50
2022-08-04T17:28:19.630Z,30.50
2022-08-04T17:30:29.635Z,30.40
2022-08-04T17:33:17.981Z,30.40
2022-08-04T17:36:07.179Z,30.40
2022-08-04T17:39:01.113Z,30.40
2022-08-04T17:41:49.654Z,30.40
2022-08-04T17:44:38.842Z,30.40
2022-08-04T17:47:26.124Z,30.40
2022-08-04T17:50:31.336Z,30.40
2022-08-04T17:53:21.813Z,30.40
2022-08-04T17:56:30.333Z,30.40
2022-08-04T17:59:56.998Z,30.40
2022-08-04T18:02:35.073Z,30.40
2022-08-04T18:05:53.995Z,30.40
2022-08-04T18:08:40.978Z,30.30
2022-08-04T18:11:42.166Z,30.30
2022-08-04T18:14:41.373Z,30.30
2022-08-04T18:18:20.777Z,30.30
2022-08-04T18:20:42.756Z,30.30
2022-08-04T18:23:32.169Z,30.30
2022-08-04T18:26:23.683Z,30.20
2022-08-04T18:29:15.616Z,30.20
2022-08-04T18:32:20.699Z,30.20
2022-08-04T18:35:09.594Z,30.20
2022-08-04T18:38:11.411Z,30.20
2022-08-04T18:41:11.135Z,30.20
2022-08-04T18:43:59.874Z,30.20
2022-08-04T18:46:52.498Z,30.30
2022-08-04T18:51:00.288Z,30.30
2022-08-04T18:52:47.530Z,30.30
2022-08-04T18:55:57.185Z,30.40
2022-08-04T18:58:45.438Z,30.40
2022-08-04T19:02:17.017Z,30.40
2022-08-04T19:04:41.331Z,30.40
2022-08-04T19:07:30.652Z,30.40
2022-08-04T19:10:26.849Z,30.40
2022-08-04T19:13:22.316Z,30.50
2022-08-04T19:16:16.867Z,30.50
2022-08-04T19:19:08.663Z,30.50
2022-08-04T19:22:00.317Z,30.50
2022-08-04T19:24:49.002Z,30.50
2022-08-04T19:27:38.866Z,30.50
2022-08-04T19:30:27.796Z,30.50
2022-08-04T19:33:16.112Z,30.50
2022-08-04T19:36:05.382Z,30.50
2022-08-04T19:38:54.028Z,30.50
2022-08-04T19:44:48.334Z,30.50
2022-08-04T19:48:21.690Z,30.40
2022-08-04T19:50:43.514Z,30.40
2022-08-04T19:53:37.524Z,30.40
2022-08-04T19:56:40.353Z,30.40
2022-08-04T19:59:32.326Z,30.40
2022-08-04T20:02:19.727Z,30.30
2022-08-04T20:05:08.990Z,30.30
2022-08-04T20:07:56.158Z,30.20
2022-08-04T20:10:46.964Z,30.20
2022-08-04T20:13:41.002Z,30.20
2022-08-04T20:16:30.903Z,30.20
2022-08-04T20:19:18.151Z,30.10
2022-08-04T20:22:05.421Z,30.10
2022-08-04T20:25:36.024Z,30.10
2022-08-04T20:28:36.210Z,30.10
2022-08-04T20:31:31.607Z,30.10
2022-08-04T20:34:19.131Z,30.10
2022-08-04T20:37:10.270Z,30.00
2022-08-04T20:40:01.014Z,30.00
2022-08-04T20:42:50.527Z,30.00
2022-08-04T20:48:46.704Z,30.00
2022-08-04T20:51:40.206Z,29.90
2022-08-04T20:54:27.907Z,29.90
2022-08-04T20:57:18.159Z,29.90
2022-08-04T21:00:26.357Z,29.90
2022-08-04T21:03:17.317Z,29.90
2022-08-04T21:06:08.371Z,29.90
2022-08-04T21:08:57.063Z,29.90
2022-08-04T21:11:47.285Z,29.90
2022-08-04T21:14:38.040Z,29.90
2022-08-04T21:20:34.622Z,29.80
2022-08-04T21:23:25.043Z,29.80
2022-08-04T21:26:23.850Z,29.80
2022-08-04T21:29:13.021Z,29.80
2022-08-04T21:32:00.474Z,29.80
2022-08-04T21:34:51.288Z,29.80
2022-08-04T21:37:57.802Z,29.70
2022-08-04T21:40:54.497Z,29.70
2022-08-04T21:43:43.131Z,29.70
2022-08-04T21:46:31.347Z,29.70
2022-08-04T21:49:18.676Z,29.70
2022-08-04T21:52:07.373Z,29.60
2022-08-04T21:54:54.990Z,29.60
2022-08-04T21:57:43.393Z,29.60
2022-08-04T22:00:34.639Z,29.60
2022-08-04T22:03:51.950Z,29.60
2022-08-04T22:06:29.164Z,29.60
2022-08-04T22:09:16.258Z,29.60
2022-08-04T22:12:03.832Z,29.50
2022-08-04T22:14:57.655Z,29.60
2022-08-04T22:17:47.791Z,29.50
2022-08-04T22:20:35.390Z,29.50
2022-08-04T22:23:25.249Z,29.50
2022-08-04T22:26:20.315Z,29.50
2022-08-04T22:29:15.539Z,29.50
2022-08-04T22:32:05.244Z,29.50
2022-08-04T22:35:03.000Z,29.50
2022-08-04T22:38:25.530Z,29.50
2022-08-04T22:41:15.382Z,29.50
2022-08-04T22:44:02.990Z,29.50
2022-08-04T22:46:50.154Z,29.50
2022-08-04T22:49:39.976Z,29.40
2022-08-04T22:52:29.140Z,29.50
2022-08-04T22:55:19.855Z,29.50
2022-08-04T22:58:09.386Z,29.50
2022-08-04T23:00:58.152Z,29.40
2022-08-04T23:03:51.210Z,29.40
2022-08-04T23:06:45.563Z,29.40
2022-08-04T23:09:51.035Z,29.40
2022-08-04T23:12:38.943Z,29.40
2022-08-04T23:15:33.825Z,29.40
2022-08-04T23:18:21.272Z,29.40
2022-08-04T23:21:09.805Z,29.40
2022-08-04T23:24:02.319Z,29.30
2022-08-04T23:26:49.986Z,29.30
2022-08-04T23:29:52.684Z,29.30
2022-08-04T23:32:41.710Z,29.30
2022-08-04T23:35:29.145Z,29.30
2022-08-04T23:38:31.565Z,29.30
2022-08-04T23:41:20.636Z,29.30
2022-08-04T23:44:09.952Z,29.30
2022-08-04T23:47:04.686Z,29.30
2022-08-04T23:49:51.897Z,29.30
2022-08-04T23:52:45.416Z,29.30
2022-08-04T23:55:36.401Z,29.30
2022-08-04T23:58:29.420Z,29.30
